Time;durP1;ratioP1;P1;durP2;ratioP2;P2;SDS_P1;SDS_P2;PMS_P1;PMS_P2;Temp;Humidity;BMP_temperature;BMP_pressure;BME280_temperature;BME280_humidity;BME280_pressure;Samples;Min_cycle;Max_cycle;Signal;HPM_P1;HPM_P2
2022/11/08 00:02:00;;;;;;;6.38;4.30;;;23.40;52.00;;;;;;6170284;28;79973;-59
2022/11/08 00:14:59;;;;;;;8.93;5.55;;;23.40;51.70;;;;;;6171756;28;81620;-58
2022/11/08 00:17:59;;;;;;;8.45;5.45;;;23.40;51.80;;;;;;6174170;28;87595;-58
2022/11/08 00:21:00;;;;;;;7.45;4.82;;;23.30;51.20;;;;;;6185353;28;80911;-58
2022/11/08 00:24:01;;;;;;;7.82;5.00;;;23.30;51.50;;;;;;6178673;28;80458;-58
2022/11/08 00:27:01;;;;;;;9.30;5.50;;;23.40;51.20;;;;;;6178917;28;81013;-58
2022/11/08 00:30:02;;;;;;;7.15;5.20;;;23.40;51.70;;;;;;6173266;28;80762;-58
2022/11/08 00:33:02;;;;;;;9.93;5.40;;;23.40;51.50;;;;;;6179862;28;80040;-57
2022/11/08 00:36:03;;;;;;;7.32;4.95;;;23.30;51.30;;;;;;6177243;28;80912;-56
2022/11/08 00:39:03;;;;;;;8.38;5.18;;;23.40;51.50;;;;;;6176997;28;80993;-58
2022/11/08 00:42:04;;;;;;;7.80;5.07;;;23.30;51.30;;;;;;6176729;28;80946;-58
2022/11/08 00:45:04;;;;;;;6.97;5.00;;;23.30;51.10;;;;;;6179798;28;82058;-58
2022/11/08 00:48:05;;;;;;;8.07;4.90;;;23.30;51.20;;;;;;6176420;28;80588;-58
2022/11/08 00:51:05;;;;;;;8.40;5.07;;;23.30;51.20;;;;;;6176377;28;86672;-58
2022/11/08 00:54:06;;;;;;;7.28;4.53;;;23.30;51.10;;;;;;6175699;28;80827;-58
2022/11/08 00:57:06;;;;;;;5.55;4.13;;;23.30;51.30;;;;;;6171432;28;83339;-59
2022/11/08 01:00:07;;;;;;;6.32;4.15;;;23.30;51.40;;;;;;6201461;28;81895;-59
2022/11/08 01:03:19;;;;;;;6.68;4.20;;;23.30;51.40;;;;;;6179560;28;80632;-58
2022/11/08 01:06:20;;;;;;;6.10;4.30;;;23.30;51.50;;;;;;6179051;28;85127;-59
2022/11/08 01:09:20;;;;;;;6.45;4.22;;;23.30;51.40;;;;;;6157372;28;84108;-59
2022/11/08 01:12:21;;;;;;;6.47;4.43;;;23.30;51.40;;;;;;6173845;28;81180;-59
2022/11/08 01:15:21;;;;;;;6.45;4.18;;;23.30;51.40;;;;;;6199443;28;81779;-59
2022/11/08 01:18:22;;;;;;;6.63;4.10;;;23.30;51.40;;;;;;6177706;28;80617;-58
2022/11/08 01:21:22;;;;;;;6.40;4.32;;;23.30;51.30;;;;;;6175758;28;80406;-58
2022/11/08 01:24:23;;;;;;;5.97;4.13;;;23.30;51.00;;;;;;6177323;28;81170;-59
2022/11/08 01:27:23;;;;;;;5.57;3.78;;;23.30;51.30;;;;;;6180464;28;80833;-72
2022/11/08 01:30:23;;;;;;;6.43;4.32;;;23.20;51.40;;;;;;6174908;28;80529;-72
2022/11/08 01:33:24;;;;;;;5.70;3.92;;;23.30;51.40;;;;;;6175903;28;80716;-73
2022/11/08 01:36:25;;;;;;;7.32;4.20;;;23.30;51.30;;;;;;6165889;28;80168;-73
2022/11/08 01:39:25;;;;;;;6.90;3.78;;;23.30;51.20;;;;;;6197838;28;85076;-72
2022/11/08 01:42:26;;;;;;;5.38;3.80;;;23.30;51.30;;;;;;6175721;28;81044;-73
2022/11/08 01:45:26;;;;;;;6.60;4.38;;;23.30;50.80;;;;;;6175843;28;81188;-74
2022/11/08 01:48:27;;;;;;;4.55;3.28;;;23.30;50.70;;;;;;6177046;28;81328;-73
2022/11/08 01:51:27;;;;;;;4.80;3.65;;;23.30;50.60;;;;;;6175597;28;81940;-71
2022/11/08 01:54:28;;;;;;;4.90;3.40;;;23.30;50.40;;;;;;6178285;28;81071;-72
2022/11/08 01:57:28;;;;;;;6.22;3.92;;;23.30;51.10;;;;;;6193099;28;80110;-72
2022/11/08 02:00:29;;;;;;;5.47;4.03;;;23.30;50.40;;;;;;6178478;28;80885;-71
2022/11/08 02:03:29;;;;;;;6.30;3.67;;;23.30;50.50;;;;;;6174544;28;80760;-58
2022/11/08 02:06:30;;;;;;;5.80;3.88;;;23.30;50.60;;;;;;6176807;28;80828;-59
2022/11/08 02:09:30;;;;;;;5.65;3.78;;;23.20;50.30;;;;;;6198673;28;80462;-58
2022/11/08 02:12:31;;;;;;;6.80;4.03;;;23.20;50.40;;;;;;6175892;28;80533;-58
2022/11/08 02:15:31;;;;;;;5.72;3.83;;;23.20;50.30;;;;;;6197959;28;80146;-58
2022/11/08 02:18:32;;;;;;;6.00;4.18;;;23.20;50.30;;;;;;6199108;28;81919;-58
2022/11/08 02:21:32;;;;;;;5.15;3.67;;;23.20;50.10;;;;;;6175586;28;80975;-59
2022/11/08 02:24:33;;;;;;;5.57;4.13;;;23.20;50.20;;;;;;6200179;28;80597;-59
2022/11/08 02:27:33;;;;;;;6.60;4.50;;;23.20;50.00;;;;;;6199138;28;81111;-59
2022/11/08 02:30:34;;;;;;;5.40;3.75;;;23.20;50.10;;;;;;6197652;28;80815;-59
2022/11/08 02:33:34;;;;;;;7.65;4.60;;;23.20;49.90;;;;;;6198760;28;80370;-58
2022/11/08 02:36:35;;;;;;;7.35;4.45;;;23.20;49.80;;;;;;6200836;28;80543;-59
2022/11/08 02:39:35;;;;;;;5.85;4.15;;;23.20;49.80;;;;;;6198078;28;81005;-58
2022/11/08 02:42:36;;;;;;;6.38;4.28;;;23.20;50.10;;;;;;6196732;28;80923;-58
2022/11/08 02:45:36;;;;;;;6.95;4.13;;;23.20;50.10;;;;;;6199719;28;80550;-59
2022/11/08 02:48:37;;;;;;;9.23;4.35;;;23.20;50.10;;;;;;6199610;28;81925;-58
2022/11/08 02:51:37;;;;;;;5.75;4.13;;;23.20;50.10;;;;;;6199983;28;84159;-59
2022/11/08 02:54:38;;;;;;;9.18;4.82;;;23.20;50.00;;;;;;6191925;28;81333;-57
2022/11/08 02:57:38;;;;;;;6.60;4.15;;;23.20;49.90;;;;;;6195836;28;80347;-68
2022/11/08 03:00:39;;;;;;;6.05;4.60;;;23.20;50.00;;;;;;6199121;28;80529;-68
2022/11/08 03:03:39;;;;;;;6.15;4.28;;;23.20;50.10;;;;;;6198368;28;83434;-68
2022/11/08 03:06:40;;;;;;;5.90;4.18;;;23.20;49.90;;;;;;6199046;28;80988;-68
2022/11/08 03:09:40;;;;;;;6.95;4.30;;;23.20;50.00;;;;;;6202302;28;80591;-68
2022/11/08 03:12:41;;;;;;;7.32;4.40;;;23.20;49.90;;;;;;6194528;28;81885;-67
2022/11/08 03:15:42;;;;;;;7.47;4.88;;;23.20;49.70;;;;;;6197330;28;81559;-78
2022/11/08 03:18:42;;;;;;;7.63;4.80;;;23.20;49.80;;;;;;6201771;28;81086;-77
2022/11/08 03:21:43;;;;;;;6.82;4.28;;;23.20;49.60;;;;;;6196894;28;85817;-70
2022/11/08 03:24:43;;;;;;;6.45;4.25;;;23.20;49.60;;;;;;6189993;28;80939;-71
2022/11/08 03:27:44;;;;;;;7.03;4.78;;;23.20;49.60;;;;;;6176158;28;80443;-71
2022/11/08 03:30:45;;;;;;;7.25;4.68;;;23.20;49.70;;;;;;6176377;28;80994;-73
2022/11/08 03:33:45;;;;;;;8.18;4.80;;;23.20;49.60;;;;;;6194154;28;80506;-57
2022/11/08 03:36:46;;;;;;;9.18;4.90;;;23.10;49.50;;;;;;6172340;28;80925;-58
2022/11/08 03:39:46;;;;;;;8.13;4.40;;;23.20;49.60;;;;;;6173472;28;85930;-57
2022/11/08 03:42:47;;;;;;;8.85;5.00;;;23.10;49.50;;;;;;6196359;28;83858;-58
2022/11/08 03:45:47;;;;;;;6.78;4.75;;;23.10;49.40;;;;;;6206629;28;81148;-58
2022/11/08 03:48:48;;;;;;;8.30;5.15;;;23.20;49.20;;;;;;6170576;28;86372;-58
2022/11/08 03:51:48;;;;;;;6.78;5.25;;;23.10;49.10;;;;;;6167603;28;81709;-58
2022/11/08 03:54:49;;;;;;;8.05;4.78;;;23.10;49.20;;;;;;6147704;28;80724;-57
2022/11/08 03:57:49;;;;;;;7.53;5.10;;;23.10;49.10;;;;;;6139144;28;81182;-58
2022/11/08 04:00:50;;;;;;;6.93;4.78;;;23.10;49.00;;;;;;6145316;28;81587;-57
2022/11/08 04:03:50;;;;;;;8.45;5.30;;;23.10;49.00;;;;;;6129416;28;80527;-57
2022/11/08 04:06:51;;;;;;;6.65;5.13;;;23.10;49.00;;;;;;6131292;28;83311;-58
2022/11/08 04:09:51;;;;;;;8.95;5.68;;;23.10;48.90;;;;;;6150369;28;82300;-57
2022/11/08 04:16:11;;;;;;;7.40;5.35;;;23.10;49.10;;;;;;6128385;28;80258;-57
2022/11/08 04:22:31;;;;;;;7.97;5.35;;;23.20;48.60;;;;;;6127756;28;85629;-56
2022/11/08 04:25:31;;;;;;;8.18;4.72;;;23.20;48.60;;;;;;6128223;28;80624;-59
2022/11/08 04:28:32;;;;;;;9.07;5.30;;;23.20;48.60;;;;;;6130331;28;80718;-59
2022/11/08 04:31:32;;;;;;;7.68;4.90;;;23.30;48.50;;;;;;6114769;28;81036;-58
2022/11/08 04:34:33;;;;;;;8.75;5.55;;;23.30;48.40;;;;;;6125513;28;81015;-58
2022/11/08 04:37:33;;;;;;;7.78;4.55;;;23.40;48.20;;;;;;6121250;28;80911;-59
2022/11/08 04:40:34;;;;;;;7.68;5.40;;;23.40;48.00;;;;;;6122908;28;81210;-58
2022/11/08 04:43:35;;;;;;;8.43;5.22;;;23.50;48.00;;;;;;6117774;28;82723;-60
2022/11/08 04:46:35;;;;;;;8.43;5.05;;;23.50;47.80;;;;;;6121400;28;81499;-58
2022/11/08 04:49:35;;;;;;;7.40;5.13;;;23.50;47.80;;;;;;6113688;28;80386;-58
2022/11/08 04:52:36;;;;;;;7.88;5.00;;;23.50;47.70;;;;;;6112517;28;82693;-58
2022/11/08 04:55:37;;;;;;;7.32;4.97;;;23.50;47.70;;;;;;6123702;28;80827;-58
2022/11/08 04:58:37;;;;;;;6.40;4.68;;;23.60;48.00;;;;;;6111238;28;80639;-62
2022/11/08 05:01:38;;;;;;;6.20;4.60;;;23.60;48.30;;;;;;6138182;28;80767;-60
2022/11/08 05:04:38;;;;;;;7.18;4.25;;;23.60;48.40;;;;;;6139636;28;81067;-61
2022/11/08 05:07:38;;;;;;;6.90;4.50;;;23.60;48.60;;;;;;6132622;28;80370;-59
2022/11/08 05:10:39;;;;;;;8.73;4.50;;;23.70;48.60;;;;;;6132585;28;82021;-61
2022/11/08 05:13:40;;;;;;;10.02;4.45;;;23.70;48.60;;;;;;6139981;28;80631;-53
2022/11/08 05:16:40;;;;;;;9.73;4.80;;;23.70;48.60;;;;;;6138462;28;82178;-56
2022/11/08 05:26:19;;;;;;;7.90;5.10;;;23.70;48.40;;;;;;6126172;28;80603;-70
2022/11/08 05:29:20;;;;;;;9.05;4.53;;;23.70;48.60;;;;;;6122066;28;80869;-69
2022/11/08 05:32:20;;;;;;;8.80;4.18;;;23.70;48.80;;;;;;6114261;28;80372;-64
2022/11/08 05:35:21;;;;;;;8.43;4.55;;;23.80;48.70;;;;;;6127900;28;86679;-61
2022/11/08 05:38:22;;;;;;;8.25;4.50;;;23.80;48.60;;;;;;6128504;28;80498;-67
2022/11/08 05:41:22;;;;;;;7.72;4.03;;;23.80;48.30;;;;;;6124329;28;83582;-67
2022/11/08 05:44:23;;;;;;;5.13;3.55;;;23.80;48.20;;;;;;6144583;28;80910;-68
2022/11/08 05:47:23;;;;;;;6.40;4.25;;;23.80;48.30;;;;;;6130729;28;80637;-69
2022/11/08 05:50:24;;;;;;;7.82;4.80;;;23.70;48.40;;;;;;6142963;28;81238;-68
2022/11/08 05:53:24;;;;;;;8.20;4.40;;;23.70;48.30;;;;;;6133037;28;81017;-64
2022/11/08 05:56:25;;;;;;;7.90;4.10;;;23.70;48.40;;;;;;6116828;28;81159;-62
2022/11/08 05:59:25;;;;;;;7.18;3.88;;;23.70;48.10;;;;;;6126122;28;80532;-75
2022/11/08 06:02:28;;;;;;;6.32;4.28;;;23.80;48.30;;;;;;6132188;28;80619;-64
2022/11/08 06:05:28;;;;;;;14.93;4.10;;;23.70;48.60;;;;;;6106017;28;82357;-63
2022/11/08 06:08:29;;;;;;;10.50;4.25;;;23.70;48.30;;;;;;6114616;28;81314;-62
2022/11/08 06:11:29;;;;;;;9.25;4.18;;;23.70;47.90;;;;;;6106490;28;80743;-60
2022/11/08 06:14:30;;;;;;;6.53;4.10;;;23.70;48.10;;;;;;6100238;28;85496;-61
2022/11/08 06:17:30;;;;;;;8.35;4.50;;;23.70;48.00;;;;;;6109358;28;80120;-60
2022/11/08 06:20:31;;;;;;;9.48;3.95;;;23.70;47.40;;;;;;6114605;28;81210;-68
2022/11/08 06:23:31;;;;;;;8.38;4.40;;;23.70;46.80;;;;;;6119662;28;81479;-68
2022/11/08 06:26:32;;;;;;;6.72;4.05;;;23.70;47.10;;;;;;6107404;28;80809;-69
2022/11/08 06:29:32;;;;;;;8.57;4.10;;;23.80;47.30;;;;;;6100841;28;81722;-66
2022/11/08 06:32:33;;;;;;;11.98;5.07;;;23.80;46.90;;;;;;6125272;28;84508;-70
2022/11/08 06:35:33;;;;;;;13.80;4.85;;;23.90;47.00;;;;;;6107770;28;80563;-70
2022/11/08 06:38:34;;;;;;;7.13;4.40;;;23.90;47.00;;;;;;6125672;28;81964;-71
2022/11/08 06:41:34;;;;;;;10.20;4.45;;;23.90;46.90;;;;;;6120759;28;87328;-67
2022/11/08 06:44:35;;;;;;;15.50;4.70;;;24.00;47.00;;;;;;6132101;28;80939;-69
2022/11/08 06:47:35;;;;;;;9.93;4.25;;;24.00;47.50;;;;;;6128887;28;85088;-68
2022/11/08 06:50:36;;;;;;;17.48;4.95;;;24.10;47.00;;;;;;6111263;28;80891;-66
2022/11/08 06:53:36;;;;;;;9.15;4.50;;;24.10;46.30;;;;;;6121407;28;86433;-67
2022/11/08 06:56:37;;;;;;;13.43;5.88;;;24.10;46.60;;;;;;6110732;28;81688;-68
2022/11/08 06:59:38;;;;;;;11.07;5.15;;;24.10;46.10;;;;;;6102337;28;81682;-68
2022/11/08 07:02:39;;;;;;;8.75;5.45;;;24.20;46.50;;;;;;6105583;28;81454;-66
2022/11/08 07:05:40;;;;;;;12.88;6.18;;;24.20;46.40;;;;;;6107116;28;83437;-68
2022/11/08 07:08:40;;;;;;;10.82;6.45;;;24.20;46.60;;;;;;6119504;28;80601;-70
2022/11/08 07:11:41;;;;;;;13.43;6.45;;;24.30;47.00;;;;;;6121660;28;80705;-72
2022/11/08 07:14:41;;;;;;;14.63;6.95;;;24.30;47.50;;;;;;6126155;28;80397;-61
2022/11/08 07:17:42;;;;;;;14.98;7.68;;;24.30;47.10;;;;;;6102254;28;81455;-57
2022/11/08 07:20:42;;;;;;;15.00;7.07;;;24.30;46.70;;;;;;6109859;28;83854;-58
2022/11/08 07:23:43;;;;;;;13.90;8.02;;;24.40;47.30;;;;;;6100013;28;85272;-58
2022/11/08 07:26:43;;;;;;;11.35;7.82;;;24.40;47.30;;;;;;6107027;28;83014;-59
2022/11/08 07:29:44;;;;;;;16.30;7.40;;;24.40;47.20;;;;;;6104029;28;80737;-59
2022/11/08 07:32:44;;;;;;;15.68;8.32;;;24.40;47.40;;;;;;6102890;28;81123;-69
2022/11/08 07:35:46;;;;;;;12.27;7.32;;;24.50;47.00;;;;;;6097747;28;83535;-70
2022/11/08 07:38:46;;;;;;;15.30;7.60;;;24.50;47.30;;;;;;6113934;28;80757;-74
2022/11/08 07:41:47;;;;;;;15.73;7.93;;;24.50;47.20;;;;;;6102857;28;81112;-71
2022/11/08 07:44:47;;;;;;;11.90;7.75;;;24.60;47.70;;;;;;6096263;28;81030;-74
2022/11/08 07:47:48;;;;;;;14.95;8.00;;;24.70;47.70;;;;;;6116270;28;83366;-64
2022/11/08 07:50:48;;;;;;;13.85;7.47;;;24.70;47.90;;;;;;6124170;28;80663;-63
2022/11/08 07:53:49;;;;;;;16.15;8.60;;;24.70;48.10;;;;;;6118253;28;81144;-59
2022/11/08 07:56:49;;;;;;;14.60;8.10;;;24.80;48.20;;;;;;6115467;28;80857;-63
2022/11/08 07:59:50;;;;;;;12.20;7.97;;;24.80;48.70;;;;;;6122863;28;81374;-66
2022/11/08 08:02:51;;;;;;;15.25;8.73;;;24.90;47.80;;;;;;6119222;28;80666;-62
2022/11/08 08:05:52;;;;;;;20.85;9.38;;;24.90;47.20;;;;;;6112270;28;87055;-62
2022/11/08 08:08:52;;;;;;;18.05;8.43;;;24.90;46.80;;;;;;6119254;28;80263;-69
2022/11/08 08:11:53;;;;;;;18.15;8.45;;;25.00;47.50;;;;;;6119125;28;83147;-67
2022/11/08 08:14:53;;;;;;;15.13;8.90;;;25.10;47.80;;;;;;6105103;28;80581;-59
2022/11/08 08:17:54;;;;;;;20.27;9.15;;;25.10;47.20;;;;;;6110713;28;80565;-66
2022/11/08 08:20:54;;;;;;;18.65;8.73;;;25.10;47.10;;;;;;6116433;28;84476;-67
2022/11/08 08:23:55;;;;;;;18.90;9.75;;;25.20;47.10;;;;;;6134343;28;82792;-69
2022/11/08 08:26:55;;;;;;;109.43;49.58;;;25.20;46.40;;;;;;6133724;28;83739;-68
2022/11/08 08:29:56;;;;;;;213.55;96.20;;;25.20;46.30;;;;;;6126189;28;87279;-69
2022/11/08 08:32:56;;;;;;;262.30;114.45;;;25.20;46.30;;;;;;6123314;28;83307;-70
2022/11/08 08:35:59;;;;;;;366.77;161.63;;;25.30;46.50;;;;;;6116418;28;86000;-75
2022/11/08 08:39:00;;;;;;;476.27;213.02;;;25.30;46.20;;;;;;6123991;28;85624;-76
2022/11/08 08:42:00;;;;;;;639.03;307.05;;;25.40;46.20;;;;;;6121411;28;85688;-74
2022/11/08 08:45:01;;;;;;;481.38;214.82;;;25.50;46.20;;;;;;6125027;28;85592;-70
2022/11/08 08:48:01;;;;;;;380.48;155.32;;;25.40;44.60;;;;;;6122050;28;89082;-74
2022/11/08 08:51:02;;;;;;;237.75;109.07;;;25.30;43.80;;;;;;6122214;28;88828;-73
2022/11/08 08:54:02;;;;;;;243.57;107.93;;;25.20;43.20;;;;;;6117389;28;88310;-72
2022/11/08 08:57:03;;;;;;;232.00;99.53;;;25.20;43.50;;;;;;6108618;28;85632;-71
2022/11/08 09:00:04;;;;;;;196.27;92.25;;;25.10;43.00;;;;;;6104634;28;85394;-71
2022/11/08 09:03:04;;;;;;;168.70;80.72;;;25.10;42.80;;;;;;6114883;28;85014;-69
2022/11/08 09:06:05;;;;;;;154.95;76.13;;;25.10;42.60;;;;;;6111453;28;83163;-70
2022/11/08 09:09:06;;;;;;;160.95;80.75;;;25.10;42.80;;;;;;6116012;28;83411;-70
2022/11/08 09:12:06;;;;;;;163.82;81.38;;;25.10;42.60;;;;;;6109329;28;83979;-70
2022/11/08 09:15:07;;;;;;;171.07;81.75;;;25.10;42.80;;;;;;6109106;28;83586;-71
2022/11/08 09:18:08;;;;;;;166.57;76.75;;;25.10;42.70;;;;;;6126162;28;83226;-73
2022/11/08 09:21:08;;;;;;;130.98;63.88;;;25.10;43.00;;;;;;6123001;28;84131;-75
2022/11/08 09:24:09;;;;;;;137.25;63.75;;;25.10;43.00;;;;;;6144859;28;83627;-66
2022/11/08 09:27:09;;;;;;;131.25;66.90;;;25.20;43.30;;;;;;6124764;28;82962;-65
2022/11/08 09:30:10;;;;;;;153.30;72.55;;;25.30;43.80;;;;;;6141793;28;83501;-66
2022/11/08 09:33:10;;;;;;;132.25;65.40;;;25.40;44.30;;;;;;6121548;28;88694;-62
2022/11/08 09:36:11;;;;;;;129.93;58.63;;;25.50;44.50;;;;;;6125258;28;83197;-66
2022/11/08 09:39:11;;;;;;;107.35;50.90;;;25.60;44.60;;;;;;6107341;28;85059;-65
2022/11/08 09:42:12;;;;;;;99.10;49.10;;;25.60;44.40;;;;;;6125914;28;83518;-65
2022/11/08 09:45:12;;;;;;;93.13;42.90;;;25.70;44.60;;;;;;6128160;28;82800;-64
2022/11/08 09:48:13;;;;;;;88.88;36.78;;;25.70;44.50;;;;;;6105548;28;86608;-66
2022/11/08 09:51:14;;;;;;;73.78;31.80;;;25.80;44.10;;;;;;6132363;28;83111;-66
2022/11/08 09:54:14;;;;;;;51.92;27.95;;;25.70;44.00;;;;;;6116137;28;83105;-67
2022/11/08 09:57:15;;;;;;;52.65;25.73;;;25.80;43.90;;;;;;6127754;28;87309;-65
2022/11/08 10:00:15;;;;;;;51.85;25.38;;;25.80;44.20;;;;;;6134190;28;83213;-61
2022/11/08 10:03:16;;;;;;;46.83;22.48;;;25.90;44.30;;;;;;6131050;28;83263;-59
2022/11/08 10:06:16;;;;;;;50.50;22.63;;;26.00;44.30;;;;;;6130666;28;88260;-60
2022/11/08 10:09:17;;;;;;;45.30;20.75;;;25.90;44.50;;;;;;6106345;28;84199;-60
2022/11/08 10:12:17;;;;;;;37.17;19.52;;;26.00;44.10;;;;;;6145472;28;84232;-70
2022/11/08 10:15:18;;;;;;;38.13;18.48;;;26.10;44.30;;;;;;6123546;28;83702;-68
2022/11/08 10:18:18;;;;;;;38.83;18.65;;;26.10;45.10;;;;;;6124153;28;83379;-65
2022/11/08 10:21:19;;;;;;;32.35;17.77;;;26.10;44.20;;;;;;6116393;28;83499;-69
2022/11/08 10:24:19;;;;;;;39.53;18.67;;;26.20;44.30;;;;;;6120342;28;83175;-65
2022/11/08 10:27:20;;;;;;;37.88;16.67;;;26.20;44.30;;;;;;6115699;28;84977;-64
2022/11/08 10:30:20;;;;;;;33.80;15.57;;;26.20;44.40;;;;;;6089147;28;88536;-62
2022/11/08 10:33:22;;;;;;;38.95;15.50;;;26.20;44.50;;;;;;6104082;28;83756;-63
2022/11/08 10:36:23;;;;;;;32.08;14.15;;;26.30;44.60;;;;;;6107374;28;85260;-65
2022/11/08 10:39:24;;;;;;;25.63;12.77;;;26.30;44.40;;;;;;6116613;28;86201;-65
2022/11/08 10:42:24;;;;;;;55.97;12.77;;;26.40;44.10;;;;;;6117096;28;88904;-64
2022/11/08 10:45:25;;;;;;;21.85;11.20;;;26.50;44.00;;;;;;6110292;28;83810;-64
2022/11/08 10:48:25;;;;;;;24.98;12.45;;;26.50;43.70;;;;;;6109100;28;83245;-63
2022/11/08 10:51:26;;;;;;;20.27;10.38;;;26.50;44.20;;;;;;6146176;28;85034;-65
2022/11/08 10:54:26;;;;;;;23.25;10.90;;;26.60;44.00;;;;;;6110573;28;83099;-71
2022/11/08 10:57:27;;;;;;;20.17;10.70;;;26.60;43.70;;;;;;6125433;28;82871;-65
2022/11/08 11:00:27;;;;;;;23.38;10.00;;;26.70;44.00;;;;;;6112590;28;83047;-66
2022/11/08 11:03:29;;;;;;;17.80;10.20;;;26.70;42.80;;;;;;6121415;28;86065;-67
2022/11/08 11:06:29;;;;;;;20.83;9.88;;;26.70;43.30;;;;;;6084557;28;86080;-66
2022/11/08 11:09:30;;;;;;;13.90;7.63;;;26.70;43.60;;;;;;6110755;28;82979;-65
2022/11/08 11:12:30;;;;;;;19.05;7.97;;;26.60;42.80;;;;;;6111739;28;80387;-67
2022/11/08 11:15:31;;;;;;;16.92;7.55;;;26.70;42.90;;;;;;6113392;28;87774;-66
2022/11/08 11:18:31;;;;;;;13.77;7.22;;;26.70;43.10;;;;;;6108195;28;80866;-65
2022/11/08 11:21:32;;;;;;;18.35;7.60;;;26.80;43.20;;;;;;6112360;28;80846;-66
2022/11/08 11:24:32;;;;;;;11.80;6.43;;;26.80;43.20;;;;;;6112105;28;80565;-68
2022/11/08 11:27:33;;;;;;;11.68;6.20;;;26.80;42.70;;;;;;6114604;28;83191;-73
2022/11/08 11:30:33;;;;;;;14.93;6.85;;;26.80;42.60;;;;;;6105811;28;80986;-66
2022/11/08 11:33:34;;;;;;;13.65;5.63;;;26.90;43.50;;;;;;6110011;28;80696;-66
2022/11/08 11:36:34;;;;;;;15.40;5.88;;;26.90;42.60;;;;;;6111275;28;80597;-70
2022/11/08 11:39:35;;;;;;;11.90;5.90;;;26.90;43.70;;;;;;6116604;28;80932;-72
2022/11/08 11:42:35;;;;;;;13.00;5.40;;;26.90;43.80;;;;;;6117037;28;81031;-66
2022/11/08 11:45:36;;;;;;;12.20;5.43;;;26.90;43.20;;;;;;6118559;28;86390;-73
2022/11/08 11:48:36;;;;;;;11.18;5.43;;;27.00;43.60;;;;;;6121427;28;80831;-74
2022/11/08 11:51:37;;;;;;;13.38;5.93;;;27.00;43.10;;;;;;6112605;28;84441;-70
2022/11/08 11:54:37;;;;;;;9.60;4.63;;;27.00;43.20;;;;;;6109357;28;80474;-69
2022/11/08 11:57:38;;;;;;;9.95;4.32;;;26.80;41.50;;;;;;6113073;28;86824;-71
2022/11/08 12:00:38;;;;;;;10.38;4.68;;;26.90;42.30;;;;;;6124778;28;80552;-74
2022/11/08 12:03:39;;;;;;;9.15;3.90;;;26.90;43.00;;;;;;6120172;28;80963;-74
2022/11/08 12:06:39;;;;;;;12.43;4.05;;;27.00;43.00;;;;;;6126598;28;82143;-73
2022/11/08 12:09:40;;;;;;;8.98;4.30;;;27.00;43.30;;;;;;6104117;28;80685;-64
2022/11/08 12:12:40;;;;;;;6.80;3.85;;;27.10;42.60;;;;;;6106686;28;86638;-63
2022/11/08 12:15:41;;;;;;;10.05;3.83;;;27.00;41.80;;;;;;6115351;28;86903;-63
2022/11/08 12:18:41;;;;;;;10.27;3.88;;;27.00;41.90;;;;;;6120820;28;80984;-65
2022/11/08 12:21:42;;;;;;;5.22;3.10;;;27.00;42.80;;;;;;6114819;28;81774;-63
2022/11/08 12:24:42;;;;;;;9.80;3.75;;;27.00;42.70;;;;;;6122685;28;81774;-71
2022/11/08 12:27:43;;;;;;;8.25;3.13;;;27.00;42.60;;;;;;6116831;28;81699;-62
2022/11/08 12:30:43;;;;;;;9.00;3.13;;;27.00;43.10;;;;;;6113414;28;80672;-63
2022/11/08 12:33:44;;;;;;;31.83;11.27;;;27.00;43.00;;;;;;6120107;28;80788;-62
2022/11/08 12:36:44;;;;;;;89.60;36.95;;;27.00;42.90;;;;;;6127742;28;83323;-65
2022/11/08 12:39:45;;;;;;;243.10;106.28;;;27.00;42.90;;;;;;6126100;28;83910;-63
2022/11/08 12:42:46;;;;;;;298.45;126.40;;;27.10;41.30;;;;;;6119310;28;85723;-67
2022/11/08 12:45:47;;;;;;;308.33;134.43;;;27.00;41.80;;;;;;6125206;28;85842;-66
2022/11/08 12:48:47;;;;;;;425.27;178.68;;;27.10;41.70;;;;;;6123296;28;89202;-64
2022/11/08 12:51:48;;;;;;;362.65;154.43;;;27.10;42.20;;;;;;6119222;28;85518;-64
2022/11/08 12:54:48;;;;;;;351.50;147.95;;;27.10;42.10;;;;;;6122939;28;85323;-61
2022/11/08 12:57:49;;;;;;;325.25;141.02;;;27.10;42.30;;;;;;6109784;28;86536;-64
2022/11/08 13:00:51;;;;;;;306.27;135.35;;;27.10;42.30;;;;;;6120835;28;86056;-63
2022/11/08 13:03:52;;;;;;;322.38;142.93;;;27.10;42.10;;;;;;6101904;28;89231;-62
2022/11/08 13:06:52;;;;;;;326.75;149.30;;;27.10;42.10;;;;;;6121310;28;85709;-61
2022/11/08 13:09:53;;;;;;;317.70;144.07;;;27.10;42.10;;;;;;6120937;28;89529;-62
2022/11/08 13:12:53;;;;;;;275.88;127.85;;;27.10;41.90;;;;;;6009703;28;87506;-63
2022/11/08 13:15:54;;;;;;;250.90;123.45;;;27.10;42.00;;;;;;6013314;28;88661;-62
2022/11/08 13:18:55;;;;;;;266.88;129.15;;;27.10;42.30;;;;;;5515624;28;89958;-61
2022/11/08 13:21:56;;;;;;;293.77;138.43;;;27.10;42.20;;;;;;5477427;28;89220;-60
2022/11/08 13:24:57;;;;;;;188.45;85.75;;;27.10;42.20;;;;;;5489799;28;89448;-60
2022/11/08 13:27:58;;;;;;;186.00;88.07;;;27.10;41.50;;;;;;5477853;28;88712;-62
2022/11/08 13:30:59;;;;;;;174.38;83.57;;;27.10;41.90;;;;;;5464409;28;86167;-63
2022/11/08 13:33:59;;;;;;;153.38;75.45;;;27.10;42.00;;;;;;5902722;28;86203;-68
2022/11/08 13:37:00;;;;;;;133.48;62.55;;;27.10;41.90;;;;;;6118872;28;83219;-65
2022/11/08 13:40:00;;;;;;;125.05;59.90;;;27.00;41.60;;;;;;6116484;28;89494;-63
2022/11/08 13:43:01;;;;;;;104.53;49.78;;;27.00;41.90;;;;;;6116764;28;84263;-61
2022/11/08 13:46:01;;;;;;;102.43;45.70;;;26.90;41.90;;;;;;6130833;28;85148;-63
2022/11/08 13:49:03;;;;;;;84.80;44.47;;;26.90;42.20;;;;;;6142705;28;83186;-61
2022/11/08 13:52:04;;;;;;;71.07;36.03;;;26.80;42.10;;;;;;6132536;28;83694;-63
2022/11/08 13:55:05;;;;;;;73.75;36.17;;;26.80;42.30;;;;;;6121781;28;83772;-63
2022/11/08 13:58:05;;;;;;;77.63;35.50;;;27.40;41.90;;;;;;6121939;28;86256;-62
2022/11/08 14:01:06;;;;;;;57.65;30.33;;;27.90;40.70;;;;;;6140187;28;83128;-63
2022/11/08 14:04:06;;;;;;;53.10;25.90;;;28.40;39.90;;;;;;6127249;28;85604;-60
2022/11/08 14:07:07;;;;;;;42.83;22.90;;;28.80;39.40;;;;;;6119533;28;85216;-65
2022/11/08 14:10:07;;;;;;;35.60;19.85;;;29.10;38.70;;;;;;6110756;28;84445;-65
2022/11/08 14:13:08;;;;;;;41.40;19.73;;;29.40;38.30;;;;;;6111544;28;86769;-65
2022/11/08 14:16:08;;;;;;;35.80;17.13;;;29.50;38.20;;;;;;6099606;28;83047;-72
2022/11/08 14:19:09;;;;;;;30.23;15.07;;;29.40;38.00;;;;;;6109767;28;83578;-70
2022/11/08 14:22:09;;;;;;;29.83;15.10;;;29.10;38.40;;;;;;6107132;28;84386;-76
2022/11/08 14:25:10;;;;;;;31.20;13.32;;;28.80;39.30;;;;;;6102557;28;87748;-69
2022/11/08 14:28:10;;;;;;;19.58;10.20;;;28.50;39.40;;;;;;6104250;28;85336;-72
2022/11/08 14:31:11;;;;;;;21.83;10.60;;;28.30;39.70;;;;;;6113242;28;86380;-75
2022/11/08 14:34:11;;;;;;;20.25;10.02;;;28.10;40.20;;;;;;6111218;28;83814;-71
2022/11/08 14:37:12;;;;;;;21.42;10.18;;;27.80;40.00;;;;;;6118931;28;83721;-74
2022/11/08 14:40:12;;;;;;;21.95;9.35;;;27.60;40.90;;;;;;6103076;28;83722;-70
2022/11/08 14:43:13;;;;;;;22.10;9.50;;;27.30;40.90;;;;;;6099698;28;85194;-67
2022/11/08 14:46:13;;;;;;;18.52;8.52;;;27.10;41.40;;;;;;6089452;28;85784;-66
2022/11/08 14:49:17;;;;;;;17.20;7.22;;;26.80;41.30;;;;;;6118748;28;81108;-66
2022/11/08 14:52:17;;;;;;;15.13;6.97;;;26.50;41.50;;;;;;6151527;28;80887;-74
2022/11/08 14:55:18;;;;;;;15.63;7.10;;;26.40;42.20;;;;;;6125617;28;80192;-65
2022/11/08 14:58:18;;;;;;;15.40;7.18;;;26.30;42.30;;;;;;6112070;28;83609;-64
2022/11/08 15:01:19;;;;;;;12.73;6.60;;;26.20;42.60;;;;;;6130310;28;83318;-64
2022/11/08 15:04:19;;;;;;;20.10;8.13;;;26.10;43.00;;;;;;6087682;28;83462;-64
2022/11/08 15:07:20;;;;;;;14.60;7.03;;;26.00;43.30;;;;;;6119054;28;81141;-60
2022/11/08 15:10:20;;;;;;;12.20;6.95;;;25.90;43.20;;;;;;6081380;23;82573;-62
2022/11/08 15:13:21;;;;;;;18.08;7.38;;;25.90;43.10;;;;;;6063189;28;83864;-59
2022/11/08 15:16:21;;;;;;;15.43;6.75;;;25.80;43.20;;;;;;6119080;28;81071;-59
2022/11/08 15:19:22;;;;;;;11.88;6.00;;;25.70;43.40;;;;;;6122719;28;87527;-59
2022/11/08 15:22:23;;;;;;;15.80;6.90;;;25.60;43.40;;;;;;6124850;28;80448;-58
2022/11/08 15:25:24;;;;;;;12.65;6.15;;;25.50;43.20;;;;;;6122354;28;81715;-66
2022/11/08 15:28:24;;;;;;;25.35;6.70;;;25.50;43.40;;;;;;6133845;28;85076;-62
2022/11/08 15:31:25;;;;;;;19.45;6.30;;;25.50;43.70;;;;;;6122030;28;81019;-64
2022/11/08 15:34:26;;;;;;;38.72;6.70;;;25.40;43.80;;;;;;6127018;28;80737;-65
2022/11/08 15:37:26;;;;;;;21.83;6.63;;;25.40;43.70;;;;;;6141724;28;80754;-64
2022/11/08 15:40:27;;;;;;;17.10;6.93;;;25.30;43.70;;;;;;6126864;28;80490;-66
2022/11/08 15:43:27;;;;;;;17.05;6.70;;;25.20;43.60;;;;;;6140040;28;80423;-63
2022/11/08 15:46:28;;;;;;;15.32;7.35;;;25.20;43.60;;;;;;6144271;28;81498;-62
2022/11/08 15:49:28;;;;;;;17.00;6.90;;;25.10;43.60;;;;;;6122783;28;86489;-61